Time;durP1;ratioP1;P1;durP2;ratioP2;P2;SDS_P1;SDS_P2;PMS_P1;PMS_P2;Temp;Humidity;BMP_temperature;BMP_pressure;BME280_temperature;BME280_humidity;BME280_pressure;Samples;Min_cycle;Max_cycle;Signal;HPM_P1;HPM_P2
2023/04/30 00:00:54;;;;;;;18.50;13.93;;;26.10;99.90;;;;;;1894347;74;21778;-82
2023/04/30 00:03:25;;;;;;;16.05;12.80;;;26.10;99.90;;;;;;1857162;76;22341;-82
2023/04/30 00:05:57;;;;;;;16.32;13.30;;;26.10;99.90;;;;;;1890577;74;21266;-83
2023/04/30 00:08:29;;;;;;;16.12;13.60;;;26.10;99.90;;;;;;1856866;76;21260;-81
2023/04/30 00:11:00;;;;;;;16.65;12.78;;;26.10;99.90;;;;;;1901448;74;21057;-83
2023/04/30 00:13:31;;;;;;;16.75;13.48;;;26.10;99.90;;;;;;1861089;76;21140;-81
2023/04/30 00:16:02;;;;;;;23.22;16.27;;;26.10;99.90;;;;;;1901999;74;21097;-82
2023/04/30 00:18:42;;;;;;;21.77;16.90;;;26.10;99.90;;;;;;1862551;76;21065;-82
2023/04/30 00:21:18;;;;;;;20.20;16.62;;;26.10;99.90;;;;;;1900940;75;21093;-82
2023/04/30 00:23:49;;;;;;;24.57;16.57;;;26.00;99.90;;;;;;1844253;76;21616;-83
2023/04/30 00:26:20;;;;;;;22.20;16.17;;;26.00;99.90;;;;;;1892135;75;21137;-83
2023/04/30 00:28:51;;;;;;;20.57;15.35;;;26.00;99.90;;;;;;1890906;74;21153;-83
2023/04/30 00:31:23;;;;;;;19.35;15.43;;;26.00;99.90;;;;;;1876545;74;21163;-82
2023/04/30 00:33:54;;;;;;;20.88;15.68;;;26.00;99.90;;;;;;1880718;75;21826;-83
2023/04/30 00:36:25;;;;;;;19.98;14.63;;;26.00;99.90;;;;;;1861392;76;21147;-82
2023/04/30 00:38:56;;;;;;;23.27;15.95;;;26.00;99.90;;;;;;1901733;74;21109;-83
2023/04/30 00:41:28;;;;;;;20.50;15.23;;;26.10;99.90;;;;;;1909126;75;21084;-82
2023/04/30 00:44:01;;;;;;;20.52;13.95;;;26.10;99.90;;;;;;1858926;76;21537;-83
2023/04/30 00:46:32;;;;;;;21.35;14.53;;;26.10;99.90;;;;;;1901128;74;21159;-83
2023/04/30 00:49:05;;;;;;;20.68;15.65;;;26.10;99.90;;;;;;1912421;74;21619;-83
2023/04/30 00:51:43;;;;;;;20.40;14.40;;;26.10;99.90;;;;;;1896850;74;21134;-83
2023/04/30 00:54:14;;;;;;;20.10;14.83;;;26.10;99.90;;;;;;1881353;75;21135;-82
2023/04/30 00:56:45;;;;;;;20.40;14.90;;;26.10;99.90;;;;;;1849137;76;21163;-82
2023/04/30 00:59:17;;;;;;;19.10;13.80;;;26.10;99.90;;;;;;1878980;75;21592;-84
2023/04/30 01:01:48;;;;;;;19.70;15.00;;;26.10;99.90;;;;;;1855033;76;21179;-83
2023/04/30 01:04:20;;;;;;;20.10;15.38;;;26.10;99.90;;;;;;1884570;74;21112;-83
2023/04/30 01:06:53;;;;;;;22.37;15.15;;;26.10;99.90;;;;;;1898083;74;21642;-82
2023/04/30 01:09:24;;;;;;;16.17;13.25;;;26.10;99.90;;;;;;1900288;75;21089;-82
2023/04/30 01:12:14;;;;;;;22.35;15.50;;;26.10;99.90;;;;;;1864464;76;21147;-83
2023/04/30 01:14:48;;;;;;;19.60;15.35;;;26.10;99.90;;;;;;1867078;75;21146;-82
2023/04/30 01:17:33;;;;;;;21.30;14.63;;;26.10;99.90;;;;;;1862236;76;21152;-82
2023/04/30 01:20:24;;;;;;;23.07;15.25;;;26.10;99.90;;;;;;1900850;75;21128;-81
2023/04/30 01:23:12;;;;;;;19.67;15.45;;;26.20;99.90;;;;;;1849004;77;21077;-81
2023/04/30 01:26:02;;;;;;;23.27;15.63;;;26.20;99.90;;;;;;1847543;76;21545;-82
2023/04/30 01:28:36;;;;;;;20.75;15.85;;;26.20;99.90;;;;;;1866135;75;21158;-80
2023/04/30 01:31:15;;;;;;;19.35;16.20;;;26.20;99.90;;;;;;1858303;76;21118;-79
2023/04/30 01:33:46;;;;;;;18.67;14.75;;;26.20;99.90;;;;;;1838237;77;21054;-81
2023/04/30 01:36:38;;;;;;;19.25;15.50;;;26.20;99.90;;;;;;1874691;76;21805;-81
2023/04/30 01:39:40;;;;;;;18.92;15.05;;;26.10;99.90;;;;;;1853311;77;21153;-80
2023/04/30 01:42:25;;;;;;;21.87;16.90;;;26.20;99.90;;;;;;1851029;76;21143;-80
2023/04/30 01:45:18;;;;;;;21.75;16.17;;;26.20;99.90;;;;;;1847178;77;21080;-81
2023/04/30 01:48:08;;;;;;;21.23;16.10;;;26.20;99.90;;;;;;1850653;76;22083;-81
2023/04/30 01:50:50;;;;;;;23.40;16.35;;;26.20;99.90;;;;;;1852172;77;21274;-80
2023/04/30 01:53:42;;;;;;;27.73;17.40;;;26.20;99.90;;;;;;1848859;77;21219;-81
2023/04/30 01:56:21;;;;;;;17.90;14.00;;;26.20;99.90;;;;;;1837468;77;21098;-80
2023/04/30 01:59:11;;;;;;;20.45;14.58;;;26.30;99.90;;;;;;1864483;75;21694;-81
2023/04/30 02:01:43;;;;;;;19.20;15.20;;;26.30;99.90;;;;;;1835518;77;21878;-81
2023/04/30 02:04:15;;;;;;;22.65;16.90;;;26.30;99.90;;;;;;1871607;75;21803;-80
2023/04/30 02:06:57;;;;;;;25.15;17.45;;;26.30;99.90;;;;;;1829186;77;21213;-80
2023/04/30 02:09:33;;;;;;;26.40;16.95;;;26.30;99.90;;;;;;1870716;75;21154;-80
2023/04/30 02:12:05;;;;;;;19.62;15.93;;;26.40;99.90;;;;;;1914448;74;21672;-82
2023/04/30 02:14:36;;;;;;;21.20;16.73;;;26.40;99.90;;;;;;1907671;74;21076;-81
2023/04/30 02:17:07;;;;;;;20.57;16.12;;;26.40;99.90;;;;;;1918914;73;21737;-80
2023/04/30 02:19:38;;;;;;;20.48;15.25;;;26.40;99.90;;;;;;1929452;73;21191;-81
2023/04/30 02:22:09;;;;;;;17.77;14.53;;;26.40;99.90;;;;;;1910546;74;21285;-81
2023/04/30 02:24:40;;;;;;;21.05;17.00;;;26.40;99.90;;;;;;1907698;74;21150;-81
2023/04/30 02:27:12;;;;;;;21.75;19.20;;;26.30;99.90;;;;;;1865649;75;21123;-80
2023/04/30 02:29:43;;;;;;;19.17;14.50;;;26.40;99.90;;;;;;1858265;75;21236;-79
2023/04/30 02:32:14;;;;;;;17.42;14.73;;;26.40;99.90;;;;;;1912088;74;21625;-80
2023/04/30 02:34:46;;;;;;;17.57;13.58;;;26.40;99.90;;;;;;1909502;74;21181;-79
2023/04/30 02:37:17;;;;;;;16.52;13.88;;;26.50;99.90;;;;;;1843091;76;21209;-79
2023/04/30 02:39:48;;;;;;;20.68;13.72;;;26.50;99.90;;;;;;1838885;76;21218;-80
2023/04/30 02:42:19;;;;;;;16.67;13.08;;;26.50;99.90;;;;;;1905484;74;21197;-80
2023/04/30 02:44:50;;;;;;;15.10;13.32;;;26.50;99.90;;;;;;1863459;76;21130;-81
2023/04/30 02:47:28;;;;;;;15.15;11.97;;;26.50;99.90;;;;;;1913569;74;21154;-82
2023/04/30 02:50:00;;;;;;;14.50;12.78;;;26.50;99.90;;;;;;1916920;74;21172;-82
2023/04/30 02:52:31;;;;;;;15.58;12.78;;;26.50;99.90;;;;;;1862025;76;21069;-81
2023/04/30 02:55:03;;;;;;;14.78;12.65;;;26.50;99.90;;;;;;1906236;74;21137;-81
2023/04/30 02:57:45;;;;;;;17.90;13.70;;;26.60;99.90;;;;;;1869648;75;21188;-81
2023/04/30 03:00:21;;;;;;;17.37;14.30;;;26.50;99.90;;;;;;1852196;75;21190;-82
2023/04/30 03:02:52;;;;;;;19.42;14.40;;;26.60;99.90;;;;;;1911645;74;21507;-83
2023/04/30 03:05:24;;;;;;;20.00;15.03;;;26.60;99.90;;;;;;1914534;74;21079;-82
2023/04/30 03:07:55;;;;;;;16.42;13.90;;;26.60;99.90;;;;;;1907519;74;21170;-82
2023/04/30 03:10:26;;;;;;;17.17;13.93;;;26.60;99.90;;;;;;1896859;75;21183;-81
2023/04/30 03:12:57;;;;;;;16.97;13.85;;;26.70;99.90;;;;;;1905740;74;21235;-81
2023/04/30 03:15:33;;;;;;;17.05;13.58;;;26.60;99.90;;;;;;1846119;76;21704;-81
2023/04/30 03:18:04;;;;;;;19.25;14.78;;;26.70;99.90;;;;;;1840391;76;21598;-82
2023/04/30 03:20:36;;;;;;;18.35;13.53;;;26.70;99.90;;;;;;1904372;74;21158;-81
2023/04/30 03:23:27;;;;;;;18.32;13.60;;;26.70;99.90;;;;;;1905184;74;21504;-80
2023/04/30 03:26:04;;;;;;;16.80;12.93;;;26.70;99.90;;;;;;1920961;74;21657;-83
2023/04/30 03:28:37;;;;;;;15.78;12.80;;;26.70;99.90;;;;;;1913600;74;21125;-83
2023/04/30 03:31:12;;;;;;;17.80;14.03;;;26.70;99.90;;;;;;1910891;74;21108;-81
2023/04/30 03:33:42;;;;;;;18.80;12.95;;;26.80;99.90;;;;;;1904400;74;21082;-82
2023/04/30 03:36:13;;;;;;;15.08;12.30;;;26.80;99.90;;;;;;1914949;74;21126;-81
2023/04/30 03:38:44;;;;;;;15.08;12.23;;;26.90;99.90;;;;;;1915028;74;21618;-81
2023/04/30 03:41:16;;;;;;;15.90;13.10;;;26.90;99.90;;;;;;1907134;74;21157;-81
2023/04/30 03:43:47;;;;;;;15.08;11.78;;;26.90;99.90;;;;;;1907045;74;21729;-81
2023/04/30 03:46:18;;;;;;;16.85;13.05;;;26.90;99.90;;;;;;1903845;74;21087;-80
2023/04/30 03:48:49;;;;;;;18.95;13.72;;;26.90;99.90;;;;;;1906803;74;21652;-80
2023/04/30 03:51:21;;;;;;;16.90;12.73;;;27.00;99.90;;;;;;1913124;74;21147;-81
2023/04/30 03:54:02;;;;;;;16.30;12.82;;;27.00;99.90;;;;;;1912175;74;21128;-83
2023/04/30 03:56:53;;;;;;;17.60;12.98;;;26.90;99.90;;;;;;1906538;74;21184;-80
2023/04/30 03:59:27;;;;;;;14.13;12.35;;;26.90;99.90;;;;;;1863852;75;21208;-80
2023/04/30 04:02:01;;;;;;;20.68;12.95;;;26.90;99.90;;;;;;1863884;76;21228;-79
2023/04/30 04:04:51;;;;;;;13.45;12.03;;;26.90;99.90;;;;;;1914124;74;21200;-76
2023/04/30 04:07:42;;;;;;;13.13;11.38;;;26.90;99.90;;;;;;1901128;74;21197;-81
2023/04/30 04:10:31;;;;;;;13.45;10.45;;;27.00;99.90;;;;;;1877132;75;21206;-80
2023/04/30 04:13:12;;;;;;;13.25;10.08;;;27.10;99.90;;;;;;1857433;76;21622;-80
2023/04/30 04:15:45;;;;;;;12.47;10.32;;;27.10;99.90;;;;;;1906672;74;21166;-79
2023/04/30 04:18:16;;;;;;;11.93;10.43;;;27.20;99.90;;;;;;1915439;74;21101;-80
2023/04/30 04:20:48;;;;;;;10.82;9.53;;;27.30;99.90;;;;;;1905449;74;21603;-81
2023/04/30 04:23:19;;;;;;;12.63;9.88;;;27.40;99.90;;;;;;1915652;74;21523;-79
2023/04/30 04:25:51;;;;;;;11.40;9.50;;;27.50;99.90;;;;;;1864749;76;21200;-80
2023/04/30 04:28:22;;;;;;;12.50;9.78;;;27.60;99.90;;;;;;1920366;74;21139;-79
2023/04/30 04:30:53;;;;;;;11.83;9.83;;;27.60;99.90;;;;;;1915775;74;21111;-80
2023/04/30 04:33:24;;;;;;;13.93;10.45;;;27.70;99.90;;;;;;1871362;75;21132;-80
2023/04/30 04:36:06;;;;;;;14.43;10.65;;;27.80;99.90;;;;;;1909206;74;21135;-82
2023/04/30 04:38:38;;;;;;;12.18;10.08;;;27.80;99.90;;;;;;1860670;76;21228;-81
2023/04/30 04:41:09;;;;;;;13.53;10.70;;;27.80;99.90;;;;;;1863728;76;21118;-83
2023/04/30 04:43:40;;;;;;;14.45;10.75;;;27.80;99.90;;;;;;1860778;76;21084;-80
2023/04/30 04:46:11;;;;;;;11.93;10.58;;;27.80;99.90;;;;;;1915907;73;21135;-82
2023/04/30 04:48:43;;;;;;;13.18;10.28;;;27.80;99.90;;;;;;1873738;74;21152;-81
2023/04/30 04:51:14;;;;;;;11.65;10.15;;;27.80;99.90;;;;;;1867111;75;21162;-82
2023/04/30 04:53:46;;;;;;;11.85;9.83;;;27.90;99.80;;;;;;1917253;74;21607;-80
2023/04/30 04:56:17;;;;;;;12.75;10.80;;;28.00;99.40;;;;;;1833682;77;21142;-80
2023/04/30 04:58:49;;;;;;;11.60;9.93;;;28.00;99.40;;;;;;1908518;73;21826;-81
2023/04/30 05:01:20;;;;;;;11.78;9.48;;;28.10;99.30;;;;;;1830249;77;21154;-81
2023/04/30 05:03:53;;;;;;;12.28;9.75;;;28.30;99.30;;;;;;1911496;74;21661;-80
2023/04/30 05:06:24;;;;;;;11.63;10.43;;;28.40;98.90;;;;;;1863953;75;21560;-83
2023/04/30 05:08:56;;;;;;;12.37;9.45;;;28.50;98.30;;;;;;1912383;74;21199;-81
2023/04/30 05:11:28;;;;;;;10.53;9.43;;;28.60;97.90;;;;;;1823634;77;21587;-80
2023/04/30 05:13:59;;;;;;;14.43;10.78;;;28.70;97.80;;;;;;1913002;74;21072;-81
2023/04/30 05:16:31;;;;;;;11.68;10.03;;;28.90;97.90;;;;;;1832328;77;21101;-80
2023/04/30 05:19:02;;;;;;;11.10;9.58;;;29.00;97.30;;;;;;1838563;77;21132;-80
2023/04/30 05:21:34;;;;;;;16.02;10.08;;;29.10;97.10;;;;;;1854052;76;21614;-79
2023/04/30 05:24:06;;;;;;;11.43;9.43;;;29.30;96.70;;;;;;1859225;76;21249;-79
2023/04/30 05:26:37;;;;;;;13.68;9.58;;;29.40;96.70;;;;;;1867033;76;21152;-79
2023/04/30 05:29:09;;;;;;;9.35;8.35;;;29.40;95.90;;;;;;1911295;74;21164;-80
2023/04/30 05:31:40;;;;;;;12.40;9.85;;;29.40;94.80;;;;;;1874434;76;21647;-81
2023/04/30 05:34:12;;;;;;;9.43;7.70;;;29.50;95.10;;;;;;1907363;74;21142;-79
2023/04/30 05:36:46;;;;;;;10.72;9.30;;;29.50;95.00;;;;;;1900388;75;21475;-84
2023/04/30 05:39:18;;;;;;;11.75;8.23;;;29.60;95.10;;;;;;1906523;74;21067;-85
2023/04/30 05:41:55;;;;;;;10.38;8.83;;;29.60;94.00;;;;;;1844380;77;21145;-84
2023/04/30 05:44:29;;;;;;;12.53;9.35;;;29.60;94.40;;;;;;1913089;74;21246;-83
2023/04/30 05:46:58;;;;;;;13.38;10.30;;;29.80;94.90;;;;;;1906962;74;21159;-84
2023/04/30 05:49:31;;;;;;;13.48;9.40;;;29.80;95.20;;;;;;1859414;77;21075;-83
2023/04/30 05:52:03;;;;;;;12.33;8.43;;;29.90;94.60;;;;;;1907733;74;21174;-84
2023/04/30 05:54:34;;;;;;;11.05;8.33;;;30.00;93.00;;;;;;1920759;74;21576;-84
2023/04/30 05:57:07;;;;;;;11.48;8.53;;;30.10;93.30;;;;;;1894689;75;21731;-84
2023/04/30 05:59:38;;;;;;;11.00;8.35;;;30.20;93.40;;;;;;1871494;74;21583;-86
2023/04/30 06:02:09;;;;;;;10.50;8.23;;;30.20;92.80;;;;;;1907499;74;21079;-83
2023/04/30 06:04:41;;;;;;;10.75;8.43;;;30.20;93.50;;;;;;1868241;76;21104;-83
2023/04/30 06:07:15;;;;;;;10.35;8.88;;;30.20;93.70;;;;;;1866322;76;21212;-84
2023/04/30 06:09:50;;;;;;;11.15;8.75;;;30.10;93.10;;;;;;1867396;75;21082;-83
2023/04/30 06:12:25;;;;;;;11.28;8.05;;;30.10;93.60;;;;;;1868619;76;21141;-84
2023/04/30 06:14:59;;;;;;;8.55;6.85;;;30.10;93.20;;;;;;1867512;75;21099;-84
2023/04/30 06:17:30;;;;;;;20.08;10.32;;;30.10;92.30;;;;;;1833205;77;21699;-81
2023/04/30 06:20:05;;;;;;;12.00;7.60;;;30.00;93.10;;;;;;1838500;76;21085;-80
2023/04/30 06:22:36;;;;;;;9.28;7.40;;;30.10;93.30;;;;;;1843114;77;21196;-81
2023/04/30 06:25:08;;;;;;;8.50;6.90;;;30.40;92.90;;;;;;1913048;74;21079;-78
2023/04/30 06:27:39;;;;;;;11.45;7.92;;;30.50;92.30;;;;;;1848869;77;21550;-78
2023/04/30 06:30:10;;;;;;;9.13;6.97;;;30.50;92.30;;;;;;1837072;77;21177;-78
2023/04/30 06:32:42;;;;;;;9.55;7.42;;;30.50;92.60;;;;;;1834230;78;21138;-81
2023/04/30 06:35:14;;;;;;;10.25;8.10;;;30.50;92.40;;;;;;1868755;77;21562;-78
2023/04/30 06:37:46;;;;;;;8.20;6.85;;;30.40;92.60;;;;;;1868861;77;21167;-79
2023/04/30 06:40:19;;;;;;;9.55;7.47;;;30.50;92.10;;;;;;1868748;76;21088;-78
2023/04/30 06:42:53;;;;;;;9.73;6.60;;;30.50;92.10;;;;;;1831475;78;21663;-79
2023/04/30 06:45:25;;;;;;;7.87;6.50;;;30.50;91.80;;;;;;1867479;77;21153;-79
2023/04/30 06:47:58;;;;;;;8.68;6.62;;;30.50;91.90;;;;;;1863922;77;21657;-78
2023/04/30 06:50:30;;;;;;;7.87;6.60;;;30.50;91.40;;;;;;1866129;76;21136;-78
2023/04/30 06:53:05;;;;;;;7.95;6.37;;;30.50;91.30;;;;;;1864554;76;21162;-80
2023/04/30 06:55:55;;;;;;;8.23;6.97;;;30.50;91.80;;;;;;1868916;77;21243;-79
2023/04/30 06:58:28;;;;;;;8.38;6.20;;;30.60;91.20;;;;;;1852862;77;21078;-79
2023/04/30 07:01:00;;;;;;;9.05;6.30;;;30.60;90.80;;;;;;1862726;77;21078;-78
2023/04/30 07:03:32;;;;;;;9.08;6.58;;;30.70;90.60;;;;;;1833048;78;21125;-79
2023/04/30 07:06:09;;;;;;;7.85;6.58;;;30.70;90.80;;;;;;1832761;78;21140;-79
2023/04/30 07:08:48;;;;;;;6.50;5.28;;;30.80;90.30;;;;;;1844844;77;21161;-79
2023/04/30 07:11:14;;;;;;;6.90;5.87;;;30.80;88.50;;;;;;1834722;77;21639;-79
2023/04/30 07:13:45;;;;;;;7.12;6.15;;;30.90;89.40;;;;;;1842812;77;21093;-80
2023/04/30 07:16:16;;;;;;;7.75;5.97;;;31.00;89.80;;;;;;1829169;78;21157;-84
2023/04/30 07:18:47;;;;;;;9.95;7.15;;;31.00;89.00;;;;;;1862651;76;21200;-84
2023/04/30 07:21:21;;;;;;;8.85;6.67;;;31.00;89.80;;;;;;1854540;76;21162;-84
2023/04/30 07:23:55;;;;;;;9.98;6.72;;;30.90;90.00;;;;;;1835735;78;21091;-83
2023/04/30 07:26:26;;;;;;;7.87;5.83;;;30.90;89.10;;;;;;1861776;76;21122;-83
2023/04/30 07:28:57;;;;;;;9.43;6.22;;;30.90;89.70;;;;;;1871584;76;21574;-84
2023/04/30 07:31:28;;;;;;;9.58;6.22;;;30.90;88.20;;;;;;1864654;77;21103;-83
2023/04/30 07:36:58;;;;;;;7.67;6.12;;;30.80;88.70;;;;;;1762287;80;21197;-82
2023/04/30 07:42:34;;;;;;;6.90;5.58;;;30.80;88.20;;;;;;1759916;81;21327;-83
2023/04/30 07:45:36;;;;;;;9.73;5.78;;;30.80;88.10;;;;;;1757873;80;21205;-83
2023/04/30 07:48:49;;;;;;;7.08;5.40;;;30.80;87.00;;;;;;1652417;85;21219;-83
2023/04/30 07:51:24;;;;;;;5.45;4.45;;;30.80;86.50;;;;;;1665680;86;21680;-83
2023/04/30 07:54:02;;;;;;;6.40;5.30;;;30.80;84.10;;;;;;1650262;87;21291;-84
2023/04/30 07:56:34;;;;;;;;;;;30.80;83.40;;;;;;1673184;84;21146;-84
2023/04/30 07:59:06;;;;;;;7.33;5.60;;;30.80;84.70;;;;;;1682257;84;20454;-83
2023/04/30 08:01:45;;;;;;;7.67;5.70;;;30.90;84.70;;;;;;1682762;85;21765;-81
2023/04/30 08:04:21;;;;;;;6.65;5.62;;;30.90;84.70;;;;;;1719986;83;21239;-82
2023/04/30 08:07:08;;;;;;;7.95;6.20;;;31.00;84.40;;;;;;1693189;81;21162;-84
2023/04/30 08:09:38;;;;;;;7.00;5.62;;;31.00;85.60;;;;;;1796726;78;21109;-83
2023/04/30 08:12:10;;;;;;;7.83;5.15;;;31.00;84.90;;;;;;1745880;81;21185;-83
2023/04/30 08:14:41;;;;;;;7.70;5.58;;;31.00;82.10;;;;;;1732362;83;21271;-84
2023/04/30 08:17:13;;;;;;;6.10;5.17;;;31.10;83.70;;;;;;1732687;83;21161;-81
2023/04/30 08:20:02;;;;;;;8.40;6.50;;;31.10;83.80;;;;;;1735556;81;21606;-83
2023/04/30 08:22:23;;;;;;;8.93;6.12;;;31.10;84.80;;;;;;1773210;80;21105;-83
2023/04/30 08:25:00;;;;;;;7.78;6.15;;;31.20;84.80;;;;;;1772906;79;21670;-82
2023/04/30 08:27:38;;;;;;;7.17;6.08;;;31.20;85.20;;;;;;1821331;77;21166;-83
2023/04/30 08:30:11;;;;;;;7.85;5.42;;;31.30;84.00;;;;;;1843128;77;21111;-83
2023/04/30 08:32:59;;;;;;;8.48;6.28;;;31.30;82.60;;;;;;1833237;78;21608;-83
2023/04/30 08:35:16;;;;;;;10.00;6.47;;;31.30;83.90;;;;;;1822073;77;21136;-84
2023/04/30 08:37:48;;;;;;;5.92;5.33;;;31.30;84.80;;;;;;1890452;76;21126;-81
2023/04/30 08:40:20;;;;;;;7.42;5.60;;;31.20;85.10;;;;;;1816549;79;21547;-83
2023/04/30 08:43:06;;;;;;;7.37;6.12;;;31.20;85.10;;;;;;1836365;77;21127;-84
2023/04/30 08:45:40;;;;;;;7.75;5.65;;;31.20;84.20;;;;;;1830124;77;21265;-85
2023/04/30 08:48:15;;;;;;;10.45;6.22;;;31.20;84.50;;;;;;1834611;77;21212;-84
2023/04/30 08:50:45;;;;;;;7.97;6.47;;;31.20;84.20;;;;;;1891134;76;21723;-83
2023/04/30 08:53:19;;;;;;;8.88;6.58;;;31.20;85.80;;;;;;1818448;79;21158;-83
2023/04/30 08:55:50;;;;;;;10.78;6.30;;;31.20;85.10;;;;;;1898281;75;21731;-80
2023/04/30 08:58:22;;;;;;;10.25;6.20;;;31.30;85.60;;;;;;1892859;74;21259;-80
2023/04/30 09:00:54;;;;;;;7.05;5.40;;;31.30;84.80;;;;;;1847699;77;21095;-82
2023/04/30 09:03:29;;;;;;;9.60;6.37;;;31.30;85.10;;;;;;1843269;77;21134;-82
2023/04/30 09:06:00;;;;;;;9.58;6.50;;;31.30;85.20;;;;;;1834052;76;21142;-82
2023/04/30 09:08:54;;;;;;;7.08;5.90;;;31.40;85.80;;;;;;1904389;75;21208;-83
2023/04/30 09:11:30;;;;;;;9.35;6.17;;;31.30;85.40;;;;;;1920457;74;21225;-83
2023/04/30 09:14:04;;;;;;;8.43;6.03;;;31.30;85.00;;;;;;1906437;74;21117;-81
2023/04/30 09:16:51;;;;;;;7.28;5.78;;;31.20;85.30;;;;;;1837318;77;21125;-82
2023/04/30 09:19:32;;;;;;;9.93;6.27;;;31.20;85.60;;;;;;1911680;74;21204;-82
2023/04/30 09:22:18;;;;;;;6.95;5.53;;;31.20;85.50;;;;;;1903841;74;21251;-81
2023/04/30 09:24:51;;;;;;;7.83;5.67;;;31.10;84.20;;;;;;1896801;74;21611;-82
2023/04/30 09:27:23;;;;;;;6.83;5.47;;;31.10;83.50;;;;;;1926447;74;21619;-81
2023/04/30 09:29:55;;;;;;;7.10;5.72;;;31.10;83.90;;;;;;1906685;74;21850;-83
2023/04/30 09:32:28;;;;;;;6.65;5.33;;;31.10;84.50;;;;;;1918403;74;21115;-81
2023/04/30 09:34:58;;;;;;;6.65;5.67;;;31.10;84.90;;;;;;1913070;74;21171;-82
2023/04/30 09:37:39;;;;;;;8.78;6.00;;;31.00;84.90;;;;;;1907478;74;21140;-81
2023/04/30 09:40:11;;;;;;;7.65;6.05;;;31.00;84.90;;;;;;1909515;74;22102;-83
2023/04/30 09:42:44;;;;;;;6.83;6.00;;;31.00;84.80;;;;;;1904328;74;21138;-82
2023/04/30 09:45:19;;;;;;;7.93;6.30;;;30.90;84.70;;;;;;1899818;74;21727;-82
2023/04/30 09:47:51;;;;;;;7.60;5.97;;;30.90;85.40;;;;;;1899767;74;21735;-82
2023/04/30 09:50:32;;;;;;;6.90;6.00;;;30.90;85.40;;;;;;1904055;74;21220;-82
2023/04/30 09:53:12;;;;;;;8.50;6.67;;;30.80;85.20;;;;;;1906885;74;21092;-82
2023/04/30 09:55:47;;;;;;;8.40;6.35;;;30.80;85.20;;;;;;1906778;74;21182;-83
2023/04/30 09:58:22;;;;;;;8.53;6.20;;;30.80;85.40;;;;;;1910495;74;21657;-82
2023/04/30 10:00:56;;;;;;;11.95;6.45;;;30.80;85.60;;;;;;1907587;74;21169;-81
2023/04/30 10:03:28;;;;;;;11.12;5.92;;;30.80;86.00;;;;;;1889471;74;21156;-82
2023/04/30 10:05:59;;;;;;;8.90;7.08;;;30.80;85.60;;;;;;1899932;74;21130;-81
2023/04/30 10:08:40;;;;;;;9.93;6.67;;;30.80;85.80;;;;;;1915664;74;21132;-82
2023/04/30 10:11:18;;;;;;;8.63;6.42;;;30.90;86.10;;;;;;1902828;74;21148;-82
2023/04/30 10:14:21;;;;;;;7.60;6.22;;;30.90;85.40;;;;;;1895981;75;21258;-81
2023/04/30 10:17:01;;;;;;;8.18;6.20;;;30.90;85.40;;;;;;1889804;75;21173;-81
2023/04/30 10:19:51;;;;;;;11.10;7.10;;;30.90;85.50;;;;;;1896196;74;21107;-80
2023/04/30 10:22:21;;;;;;;8.90;7.25;;;30.90;85.80;;;;;;1893914;74;21229;-81
2023/04/30 10:24:52;;;;;;;8.98;7.25;;;30.90;86.10;;;;;;1820578;79;21103;-81
2023/04/30 10:27:25;;;;;;;9.85;7.05;;;30.90;86.30;;;;;;1798861;77;21190;-80
2023/04/30 10:29:57;;;;;;;8.65;6.65;;;30.80;86.60;;;;;;1888501;75;21094;-82
2023/04/30 10:32:31;;;;;;;9.40;6.45;;;30.80;86.50;;;;;;1821243;77;21213;-81
2023/04/30 10:35:07;;;;;;;10.00;7.08;;;30.80;86.20;;;;;;1826734;77;21652;-81
2023/04/30 10:37:53;;;;;;;8.75;7.05;;;30.80;86.80;;;;;;1823631;76;21089;-83
2023/04/30 10:40:27;;;;;;;11.80;7.72;;;30.80;86.80;;;;;;1900057;74;21260;-82
2023/04/30 10:43:00;;;;;;;12.88;8.68;;;30.70;87.20;;;;;;1892884;74;21625;-83
2023/04/30 10:45:45;;;;;;;15.95;12.88;;;30.70;88.00;;;;;;1879898;75;21095;-82
2023/04/30 10:48:23;;;;;;;12.73;9.55;;;30.70;88.70;;;;;;1889236;74;21174;-81
2023/04/30 10:50:56;;;;;;;12.90;9.93;;;30.70;89.10;;;;;;1891648;74;21115;-81
2023/04/30 10:53:34;;;;;;;13.62;9.58;;;30.60;89.50;;;;;;1833874;77;21234;-82
2023/04/30 10:56:07;;;;;;;14.87;10.17;;;30.60;89.80;;;;;;1909733;74;21562;-82
2023/04/30 10:58:42;;;;;;;14.10;11.03;;;30.60;89.70;;;;;;1821411;77;21704;-82
2023/04/30 11:01:17;;;;;;;14.43;11.60;;;30.50;89.90;;;;;;1898258;75;21725;-81
2023/04/30 11:04:10;;;;;;;13.20;10.35;;;30.40;90.00;;;;;;1856723;77;21126;-82
2023/04/30 11:06:56;;;;;;;13.95;10.18;;;30.40;90.00;;;;;;1866940;76;21186;-81
2023/04/30 11:09:38;;;;;;;16.35;12.05;;;30.40;90.20;;;;;;1865481;76;21665;-81
2023/04/30 11:12:18;;;;;;;15.80;12.95;;;30.30;90.30;;;;;;1866055;76;22188;-82
2023/04/30 11:14:50;;;;;;;14.38;12.10;;;30.30;90.30;;;;;;1859085;77;21080;-81
2023/04/30 11:17:26;;;;;;;16.27;11.70;;;30.30;90.30;;;;;;1825166;77;21088;-81
2023/04/30 11:20:00;;;;;;;15.45;12.45;;;30.30;90.50;;;;;;1892841;75;21083;-82
2023/04/30 11:22:41;;;;;;;17.27;12.20;;;30.20;90.50;;;;;;1853553;77;21094;-82
2023/04/30 11:25:11;;;;;;;18.12;13.03;;;30.20;90.50;;;;;;1889532;75;21181;-83
2023/04/30 11:27:47;;;;;;;15.53;11.68;;;30.20;90.60;;;;;;1885400;74;21575;-82
2023/04/30 11:30:19;;;;;;;16.17;11.53;;;30.20;90.70;;;;;;1893295;75;21436;-83
2023/04/30 11:32:51;;;;;;;16.00;10.28;;;30.20;90.70;;;;;;1901049;74;21629;-84
2023/04/30 11:35:22;;;;;;;15.03;11.20;;;30.20;90.70;;;;;;1880398;75;21162;-82
2023/04/30 11:37:55;;;;;;;13.20;9.48;;;30.10;90.80;;;;;;1895634;75;21272;-83
2023/04/30 11:40:27;;;;;;;13.70;9.65;;;30.20;90.70;;;;;;1889523;75;21133;-82
2023/04/30 11:43:26;;;;;;;13.75;10.23;;;30.20;90.80;;;;;;1896363;74;21828;-82
2023/04/30 11:46:14;;;;;;;14.15;10.63;;;30.10;90.80;;;;;;1894531;75;21684;-82
2023/04/30 11:48:46;;;;;;;15.05;10.23;;;30.10;90.90;;;;;;1894314;74;21143;-83
2023/04/30 11:51:22;;;;;;;15.00;10.38;;;30.10;91.10;;;;;;1892891;74;21610;-81
2023/04/30 11:54:05;;;;;;;14.38;10.43;;;30.10;91.00;;;;;;1853597;76;21127;-82
2023/04/30 11:56:32;;;;;;;13.10;10.25;;;30.10;91.00;;;;;;1856172;77;21181;-83
2023/04/30 11:59:11;;;;;;;14.23;9.88;;;30.10;91.00;;;;;;1860205;75;21064;-81
2023/04/30 12:01:55;;;;;;;15.88;10.78;;;30.10;91.00;;;;;;1864193;76;21199;-81
2023/04/30 12:04:28;;;;;;;;;;;30.10;91.20;;;;;;1884823;75;21099;-82
2023/04/30 12:07:09;;;;;;;17.50;12.78;;;30.00;91.20;;;;;;1868627;75;20181;-82
2023/04/30 12:09:55;;;;;;;14.40;12.25;;;30.00;91.40;;;;;;1872678;75;21551;-82
2023/04/30 12:12:30;;;;;;;17.30;12.63;;;30.00;91.50;;;;;;1884123;75;21111;-82
2023/04/30 12:15:04;;;;;;;19.90;12.82;;;30.00;91.60;;;;;;1894184;75;21534;-82
2023/04/30 12:17:35;;;;;;;17.45;12.88;;;30.00;91.60;;;;;;1850836;77;21123;-81
2023/04/30 12:20:09;;;;;;;16.20;11.83;;;29.90;92.10;;;;;;1887746;75;21176;-82
2023/04/30 12:22:44;;;;;;;16.35;11.80;;;29.90;91.70;;;;;;1827211;77;21580;-82
2023/04/30 12:25:20;;;;;;;17.37;13.98;;;29.90;91.60;;;;;;1836411;76;21150;-81
2023/04/30 12:27:56;;;;;;;19.42;15.23;;;29.90;91.70;;;;;;1888969;75;21199;-81
2023/04/30 12:30:28;;;;;;;16.52;12.15;;;29.90;91.70;;;;;;1856911;77;21097;-81
2023/04/30 12:33:02;;;;;;;13.70;11.12;;;29.90;91.70;;;;;;1886552;75;21067;-80
2023/04/30 12:35:35;;;;;;;12.73;10.60;;;29.90;91.70;;;;;;1876207;75;21132;-82
2023/04/30 12:38:08;;;;;;;15.48;11.88;;;29.90;91.60;;;;;;1873680;75;21118;-81
2023/04/30 12:40:43;;;;;;;17.37;11.80;;;29.90;91.60;;;;;;1873912;75;21113;-82
2023/04/30 12:43:17;;;;;;;19.98;13.08;;;29.90;91.80;;;;;;1822624;76;21109;-81
2023/04/30 12:45:55;;;;;;;19.07;13.55;;;29.90;91.70;;;;;;1870540;75;21108;-82
2023/04/30 12:48:26;;;;;;;18.32;12.23;;;29.90;91.80;;;;;;1872915;75;21064;-81
2023/04/30 12:51:05;;;;;;;16.35;12.50;;;29.80;91.90;;;;;;1877901;75;21169;-81
2023/04/30 12:53:32;;;;;;;15.45;11.73;;;29.80;92.00;;;;;;1871889;75;21190;-82
2023/04/30 12:56:21;;;;;;;18.25;11.97;;;29.80;92.00;;;;;;1893751;75;21522;-82
2023/04/30 12:58:51;;;;;;;14.45;11.95;;;29.80;92.20;;;;;;1873991;75;21583;-82
2023/04/30 13:01:24;;;;;;;15.58;12.28;;;29.80;92.30;;;;;;1892347;74;21110;-82
2023/04/30 13:03:55;;;;;;;16.75;11.93;;;29.80;92.30;;;;;;1904632;74;21130;-81
2023/04/30 13:06:29;;;;;;;16.15;11.95;;;29.70;92.30;;;;;;1858493;75;21185;-81
2023/04/30 13:09:03;;;;;;;15.03;11.83;;;29.70;92.40;;;;;;1907263;74;21756;-81
2023/04/30 13:11:35;;;;;;;14.83;12.03;;;29.70;92.40;;;;;;1852277;76;21214;-82
2023/04/30 13:14:09;;;;;;;16.12;11.30;;;29.70;92.40;;;;;;1894983;74;21507;-83
2023/04/30 13:16:39;;;;;;;15.18;11.80;;;29.80;92.50;;;;;;1898187;74;21539;-81
2023/04/30 13:19:17;;;;;;;13.95;11.12;;;29.70;92.20;;;;;;1868885;75;21169;-83
2023/04/30 13:21:49;;;;;;;17.48;11.28;;;29.70;92.20;;;;;;1909686;74;21102;-82